CYVR/YVR METAR and TAF weather

Enter ICAO airport designator
Station Type Date Time Source
CYVR METAR 2020/10/20 17:00 UTC NOAA

CYVR 201700Z 13005KT 30SM FEW015 FEW040 BKN190 BKN210 BKN240 10/09 A3020 RMK CF2SC1AC5CI1CC1 SC TR CI TR CC TR SLP227


Station Type Date Time Source
CYVR Decoded METAR 2020/10/20 17:00 UTC NOAA

Vancouver International Air-Port, B. C., Canada (CYVR) 49-11N 123-10W 2M
Oct 20, 2020 - 01:00 PM EDT / 2020.10.20 1700 UTC
Wind: from the SE (130 degrees) at 6 MPH (5 KT):0
Visibility: 30 mile(s):0
Sky conditions: mostly cloudy
Temperature: 50 F (10 C)
Dew Point: 48 F (9 C)
Relative Humidity: 93%
Pressure (altimeter): 30.2 in. Hg (1022 hPa)
ob: CYVR 201700Z 13005KT 30SM FEW015 FEW040 BKN190 BKN210 BKN240 10/09 A3020 RMK CF2SC1AC5CI1CC1 SC TR CI TR CC TR SLP227
cycle: 17

Station Type Date Time Source
CYVR TAF 2020/10/20 18:42 UTC NOAA

TAF CYVR 201738Z 2018/2124 VRB03KT P6SM SCT015 SCT050 BKN200
TEMPO 2018/2022 BKN015 BKN050
BECMG 2018/2020 25008KT
FM202200 25008KT P6SM FEW050 SCT070
FM210200 23005KT P6SM SCT030 BKN050
TEMPO 2102/2109 P6SM -SHRA BKN030
BECMG 2103/2105 29010KT
FM210900 29015KT P6SM FEW050
FM211500 29012KT P6SM FEW050 SCT120
RMK NXT FCST BY 202100Z

Example: see airport list